Time;durP1;ratioP1;P1;durP2;ratioP2;P2;SDS_P1;SDS_P2;PMS_P1;PMS_P2;Temp;Humidity;BMP_temperature;BMP_pressure;BME280_temperature;BME280_humidity;BME280_pressure;Samples;Min_cycle;Max_cycle;Signal;HPM_P1;HPM_P2
2022/06/17 00:01:26;;;;;;;1.67;0.60;;;;;;;23.85;34.80;100614.63;4908209;29;20045;-79
2022/06/17 00:03:54;;;;;;;2.08;0.60;;;;;;;23.76;34.36;100614.88;4913670;29;20124;-81
2022/06/17 00:06:24;;;;;;;2.25;1.00;;;;;;;23.74;35.09;100614.03;4915882;29;20443;-80
2022/06/17 00:08:56;;;;;;;2.15;0.73;;;;;;;23.60;33.97;100604.69;4914112;29;20054;-75
2022/06/17 00:11:27;;;;;;;2.25;1.10;;;;;;;23.64;35.09;100602.84;4921570;29;20480;-77
2022/06/17 00:13:56;;;;;;;3.13;0.80;;;;;;;23.68;34.59;100593.03;4902666;29;20489;-76
2022/06/17 00:16:27;;;;;;;1.30;0.85;;;;;;;23.78;33.64;100598.06;4917176;29;20059;-78
2022/06/17 00:18:56;;;;;;;1.35;0.73;;;;;;;23.37;33.74;100596.53;4923563;29;20059;-77
2022/06/17 00:21:28;;;;;;;4.63;1.10;;;;;;;23.09;33.38;100597.22;4907370;29;20115;-80
2022/06/17 00:23:57;;;;;;;2.05;1.08;;;;;;;22.94;34.69;100593.13;4907427;29;20079;-80
2022/06/17 00:26:28;;;;;;;1.40;0.65;;;;;;;23.01;35.62;100578.06;4908885;29;20103;-77
2022/06/17 00:28:57;;;;;;;1.80;0.97;;;;;;;23.17;36.43;100584.69;4929045;29;20107;-75
2022/06/17 00:31:27;;;;;;;1.05;0.70;;;;;;;23.20;34.81;100574.06;4913735;29;20295;-77
2022/06/17 00:33:55;;;;;;;1.08;0.80;;;;;;;23.23;34.71;100569.59;4906434;29;20060;-82
2022/06/17 00:36:24;;;;;;;1.63;0.95;;;;;;;23.09;35.14;100569.94;4913482;29;20048;-76
2022/06/17 00:38:53;;;;;;;1.40;0.70;;;;;;;23.02;34.93;100571.91;4922680;29;20250;-78
2022/06/17 00:41:27;;;;;;;1.20;0.70;;;;;;;23.01;34.98;100567.50;4913771;29;20048;-77
2022/06/17 00:43:55;;;;;;;1.65;0.93;;;;;;;22.88;36.16;100560.75;4912755;29;20063;-79
2022/06/17 00:46:34;;;;;;;1.00;0.60;;;;;;;22.67;36.27;100563.00;4936304;28;20657;-76
2022/06/17 00:49:12;;;;;;;2.05;0.80;;;;;;;22.47;36.00;100554.69;4934129;29;20051;-77
2022/06/17 00:51:47;;;;;;;1.05;0.80;;;;;;;22.41;37.04;100544.31;4926609;29;20082;-79
2022/06/17 00:54:27;;;;;;;0.95;0.70;;;;;;;22.42;36.67;100544.25;4923923;29;21006;-78
2022/06/17 00:56:56;;;;;;;1.15;0.75;;;;;;;22.31;35.62;100536.59;4924155;29;20120;-77
2022/06/17 00:59:26;;;;;;;1.20;0.70;;;;;;;22.21;36.32;100532.41;4931486;29;20052;-77
2022/06/17 01:02:02;;;;;;;3.13;0.98;;;;;;;22.23;36.85;100525.34;4925131;29;20075;-76
2022/06/17 01:04:33;;;;;;;1.08;0.70;;;;;;;22.27;34.92;100526.16;4919000;29;20048;-78
2022/06/17 01:07:06;;;;;;;1.20;0.90;;;;;;;22.20;35.56;100525.41;4918987;29;20059;-78
2022/06/17 01:12:24;;;;;;;1.33;0.88;;;;;;;22.14;36.09;100517.63;4928711;29;20063;-76
2022/06/17 01:14:55;;;;;;;1.55;1.10;;;;;;;22.15;35.41;100516.69;4931779;29;20748;-78
2022/06/17 01:17:26;;;;;;;1.20;0.82;;;;;;;22.09;36.16;100512.44;4931850;29;20050;-74
2022/06/17 01:19:57;;;;;;;1.88;0.90;;;;;;;22.17;35.74;100514.91;4929216;29;20557;-74
2022/06/17 01:22:37;;;;;;;2.25;0.90;;;;;;;22.18;35.77;100516.66;4930569;29;20383;-76
2022/06/17 01:25:10;;;;;;;1.45;0.77;;;;;;;22.17;36.06;100513.16;4927346;29;20395;-76
2022/06/17 01:27:38;;;;;;;;;;;;;;;22.07;36.12;100521.28;4932047;29;20755;-77
2022/06/17 01:30:10;;;;;;;0.90;0.70;;;;;;;21.95;38.45;100515.38;4925342;29;20437;-76
2022/06/17 01:32:55;;;;;;;1.40;0.90;;;;;;;21.83;38.56;100510.38;4943952;29;20039;-76
2022/06/17 01:35:27;;;;;;;1.30;0.85;;;;;;;21.82;38.69;100523.56;4930262;29;20048;-77
2022/06/17 01:37:58;;;;;;;2.38;0.70;;;;;;;21.71;37.20;100510.63;4930200;29;20054;-77
2022/06/17 01:40:28;;;;;;;1.60;0.80;;;;;;;21.64;36.93;100509.00;4929813;29;20139;-76
2022/06/17 01:42:59;;;;;;;1.40;0.80;;;;;;;21.58;38.20;100512.66;4928612;29;20513;-78
2022/06/17 01:45:28;;;;;;;1.38;0.90;;;;;;;21.49;37.14;100511.06;4930796;28;20395;-76
2022/06/17 01:47:56;;;;;;;1.35;0.88;;;;;;;21.46;36.82;100504.97;4934329;29;20111;-76
2022/06/17 01:50:27;;;;;;;1.75;0.90;;;;;;;21.40;37.72;100513.88;4920745;29;20047;-76
2022/06/17 01:53:02;;;;;;;2.70;0.95;;;;;;;21.34;37.54;100517.44;4916592;29;20395;-75
2022/06/17 01:55:35;;;;;;;1.85;1.13;;;;;;;21.31;37.45;100517.50;4919946;29;20054;-77
2022/06/17 01:58:08;;;;;;;2.40;0.80;;;;;;;21.30;37.99;100509.63;4923903;29;20050;-75
2022/06/17 02:00:40;;;;;;;2.83;1.33;;;;;;;21.21;38.10;100509.78;4932743;29;20106;-76
2022/06/17 02:03:12;;;;;;;2.67;0.95;;;;;;;21.12;37.92;100510.84;4925629;29;20051;-77
2022/06/17 02:05:42;;;;;;;;;;;;;;;21.08;38.54;100515.28;4925644;29;20130;-76
2022/06/17 02:08:12;;;;;;;1.58;0.98;;;;;;;21.08;39.56;100509.16;4924589;29;20292;-78
2022/06/17 02:10:44;;;;;;;1.85;1.17;;;;;;;21.07;38.61;100518.81;4930691;29;20415;-77
2022/06/17 02:13:14;;;;;;;1.58;0.90;;;;;;;21.01;38.65;100518.91;4923624;29;20051;-77
2022/06/17 02:15:45;;;;;;;2.75;0.85;;;;;;;21.01;39.63;100521.56;4928757;29;20055;-76
2022/06/17 02:18:17;;;;;;;2.45;0.98;;;;;;;20.99;39.59;100515.44;4916591;29;20052;-75
2022/06/17 02:20:52;;;;;;;2.10;0.90;;;;;;;20.97;42.40;100511.13;4919334;29;20047;-77
2022/06/17 02:23:24;;;;;;;1.80;1.08;;;;;;;20.88;41.53;100515.63;4922688;29;20058;-76
2022/06/17 02:25:53;;;;;;;;;;;;;;;20.86;40.63;100508.66;4930904;29;20437;-77
2022/06/17 02:28:23;;;;;;;1.10;0.80;;;;;;;20.82;40.52;100509.59;4928235;29;20493;-76
2022/06/17 02:30:53;;;;;;;1.65;0.98;;;;;;;20.77;40.52;100503.56;4932171;29;20081;-77
2022/06/17 02:33:23;;;;;;;1.95;0.98;;;;;;;20.69;41.13;100507.19;4936315;29;20139;-75
2022/06/17 02:35:56;;;;;;;1.60;0.85;;;;;;;20.64;41.57;100519.53;4931583;29;20062;-77
2022/06/17 02:38:36;;;;;;;1.33;0.98;;;;;;;20.66;41.49;100516.84;4931661;29;20055;-79
2022/06/17 02:41:08;;;;;;;1.73;1.00;;;;;;;20.66;41.44;100512.50;4923320;29;20044;-77
2022/06/17 02:43:41;;;;;;;1.70;0.97;;;;;;;20.67;42.40;100516.84;4929577;29;20115;-78
2022/06/17 02:46:21;;;;;;;3.03;0.85;;;;;;;20.68;41.86;100520.34;4927460;28;20079;-79
2022/06/17 02:48:54;;;;;;;1.60;1.05;;;;;;;20.66;41.37;100519.50;4928134;29;20515;-77
2022/06/17 02:51:24;;;;;;;1.48;0.90;;;;;;;20.66;41.31;100520.38;4926462;29;20058;-76
2022/06/17 02:53:55;;;;;;;3.75;1.10;;;;;;;20.67;42.07;100515.97;4924261;29;20055;-73
2022/06/17 02:56:26;;;;;;;2.33;1.08;;;;;;;20.70;42.15;100523.81;4929189;29;20052;-74
2022/06/17 02:59:05;;;;;;;1.40;1.00;;;;;;;20.69;42.79;100520.31;4930705;29;20052;-73
2022/06/17 03:01:36;;;;;;;2.05;1.08;;;;;;;20.67;41.84;100516.84;4931682;29;20051;-72
2022/06/17 03:04:12;;;;;;;4.07;0.90;;;;;;;20.66;43.57;100515.13;4927866;29;20406;-72
2022/06/17 03:06:45;;;;;;;1.48;0.98;;;;;;;20.58;45.50;100514.38;4926670;29;20429;-72
2022/06/17 03:09:21;;;;;;;3.88;1.60;;;;;;;20.51;46.56;100512.69;4927771;29;20048;-72
2022/06/17 03:11:57;;;;;;;3.92;1.15;;;;;;;20.43;43.55;100515.44;4922699;29;20122;-71
2022/06/17 03:14:29;;;;;;;2.20;1.20;;;;;;;20.36;44.44;100513.78;4923167;29;20048;-71
2022/06/17 03:17:04;;;;;;;1.25;0.90;;;;;;;20.32;44.02;100505.97;4928598;29;20051;-72
2022/06/17 03:19:36;;;;;;;3.33;1.40;;;;;;;20.30;45.24;100509.50;4927371;29;20170;-73
2022/06/17 03:22:05;;;;;;;1.40;1.00;;;;;;;20.23;44.02;100512.25;4929384;29;20770;-73
2022/06/17 03:24:44;;;;;;;3.05;1.30;;;;;;;20.20;44.02;100497.41;4936002;29;20413;-72
2022/06/17 03:27:18;;;;;;;1.77;1.15;;;;;;;20.17;44.75;100507.91;4923240;29;20504;-75
2022/06/17 03:29:49;;;;;;;3.13;0.95;;;;;;;20.17;45.97;100496.56;4919889;29;20630;-72
2022/06/17 03:32:21;;;;;;;2.13;1.07;;;;;;;20.14;46.88;100505.34;4924813;29;20666;-72
2022/06/17 03:34:52;;;;;;;2.58;1.08;;;;;;;20.08;47.47;100498.41;4919052;29;20867;-73
2022/06/17 03:37:29;;;;;;;2.25;1.05;;;;;;;20.03;48.87;100488.88;4929059;29;20478;-73
2022/06/17 03:40:04;;;;;;;2.88;1.13;;;;;;;19.96;48.03;100492.47;4916031;29;20062;-73
2022/06/17 03:42:36;;;;;;;1.25;0.90;;;;;;;19.85;47.59;100484.72;4920817;29;20044;-74
2022/06/17 03:45:11;;;;;;;1.25;0.77;;;;;;;19.72;48.96;100488.38;4924378;28;20056;-73
2022/06/17 03:47:47;;;;;;;2.15;0.70;;;;;;;19.57;49.09;100489.41;4936513;28;20107;-72
2022/06/17 03:50:23;;;;;;;1.38;0.80;;;;;;;19.47;48.70;100486.03;4929283;29;20119;-72
2022/06/17 03:52:58;;;;;;;1.30;0.90;;;;;;;19.40;48.95;100492.22;4934496;29;20051;-73
2022/06/17 03:55:29;;;;;;;1.92;0.70;;;;;;;19.31;48.74;100502.81;4929496;29;20142;-73
2022/06/17 03:58:01;;;;;;;1.58;0.75;;;;;;;19.21;49.51;100496.78;4932002;29;20048;-73
2022/06/17 04:00:43;;;;;;;1.42;0.90;;;;;;;19.13;50.58;100498.66;4929187;29;20047;-72
2022/06/17 04:03:17;;;;;;;2.28;0.80;;;;;;;19.05;50.04;100496.94;4925203;29;20056;-73
2022/06/17 04:05:48;;;;;;;3.03;1.00;;;;;;;19.02;49.64;100496.13;4927388;29;20075;-73
2022/06/17 04:08:17;;;;;;;1.50;0.70;;;;;;;18.98;50.77;100500.50;4932028;29;20055;-73
2022/06/17 04:10:48;;;;;;;2.17;0.90;;;;;;;18.89;51.42;100487.47;4933173;29;20146;-72
2022/06/17 04:13:19;;;;;;;2.95;1.10;;;;;;;18.80;51.10;100500.66;4927269;29;20116;-72
2022/06/17 04:15:55;;;;;;;2.87;1.00;;;;;;;18.74;49.90;100498.09;4928965;29;20067;-72
2022/06/17 04:18:23;;;;;;;2.75;0.90;;;;;;;18.64;51.50;100497.25;4926321;29;20597;-72
2022/06/17 04:21:01;;;;;;;1.67;0.90;;;;;;;18.54;51.28;100499.09;4927464;29;20393;-74
2022/06/17 04:23:33;;;;;;;2.17;0.90;;;;;;;18.46;50.82;100503.50;4934550;29;20051;-73
2022/06/17 04:26:07;;;;;;;1.30;0.90;;;;;;;18.38;51.35;100502.72;4925713;29;20059;-72
2022/06/17 04:28:43;;;;;;;1.63;0.82;;;;;;;18.33;52.52;100505.34;4937831;29;20056;-72
2022/06/17 04:31:18;;;;;;;2.38;0.90;;;;;;;18.26;51.21;100497.56;4930602;29;20560;-72
2022/06/17 04:33:50;;;;;;;2.85;0.95;;;;;;;18.18;50.13;100498.44;4942864;29;20052;-73
2022/06/17 04:36:22;;;;;;;2.35;1.00;;;;;;;18.09;52.67;100503.75;4933059;29;20047;-71
2022/06/17 04:38:55;;;;;;;4.72;1.10;;;;;;;18.04;52.45;100502.91;4933775;29;20143;-68
2022/06/17 04:41:29;;;;;;;2.58;1.00;;;;;;;17.95;49.94;100498.56;4932716;29;20047;-68
2022/06/17 04:44:00;;;;;;;2.38;1.20;;;;;;;17.87;50.47;100491.66;4919673;29;20498;-68
2022/06/17 04:46:33;;;;;;;2.90;1.00;;;;;;;17.82;52.37;100496.91;4937123;28;20067;-68
2022/06/17 04:49:03;;;;;;;1.75;1.00;;;;;;;17.72;53.87;100493.41;4927933;29;20100;-68
2022/06/17 04:51:35;;;;;;;2.65;1.20;;;;;;;17.61;50.92;100495.19;4930202;29;20627;-68
2022/06/17 04:54:06;;;;;;;2.25;1.00;;;;;;;17.55;51.64;100482.16;4928040;29;20716;-68
2022/06/17 04:56:41;;;;;;;1.30;0.98;;;;;;;17.49;54.93;100477.78;4930670;29;20055;-67
2022/06/17 04:59:27;;;;;;;1.48;0.98;;;;;;;17.43;54.50;100480.47;4933458;29;20421;-68
2022/06/17 05:01:57;;;;;;;2.17;1.35;;;;;;;17.34;52.86;100489.19;4926168;29;20052;-68
2022/06/17 05:04:26;;;;;;;3.40;1.25;;;;;;;17.24;53.47;100486.59;4929552;29;20044;-68
2022/06/17 05:06:55;;;;;;;9.70;1.40;;;;;;;17.13;52.62;100491.84;4929992;29;20044;-68
2022/06/17 05:09:27;;;;;;;2.67;1.50;;;;;;;17.05;54.18;100485.75;4932900;29;20438;-68
2022/06/17 05:12:03;;;;;;;1.67;1.05;;;;;;;16.95;53.91;100480.53;4928384;29;20558;-68
2022/06/17 05:14:42;;;;;;;1.88;1.13;;;;;;;16.92;54.86;100477.06;4929935;29;20052;-69
2022/06/17 05:17:10;;;;;;;2.03;1.27;;;;;;;16.78;54.49;100461.34;4924750;29;20055;-68
2022/06/17 05:19:39;;;;;;;2.60;1.35;;;;;;;16.81;54.67;100482.28;4929100;29;20050;-68
2022/06/17 05:22:15;;;;;;;1.67;1.20;;;;;;;16.79;53.82;100483.13;4927649;29;20050;-68
2022/06/17 05:24:45;;;;;;;2.50;1.15;;;;;;;16.75;56.71;100483.13;4930549;29;20048;-68
2022/06/17 05:27:15;;;;;;;3.92;1.33;;;;;;;16.69;55.49;100482.25;4933011;29;20043;-69
2022/06/17 05:29:44;;;;;;;3.15;1.40;;;;;;;16.65;55.16;100485.72;4932930;29;20055;-68
2022/06/17 05:32:15;;;;;;;2.97;1.90;;;;;;;16.60;54.55;100482.25;4931051;29;20044;-68
2022/06/17 05:34:44;;;;;;;2.83;1.40;;;;;;;16.57;54.40;100484.88;4931920;29;20521;-67
2022/06/17 05:37:12;;;;;;;3.03;1.38;;;;;;;16.55;54.79;100485.72;4930422;29;20062;-68
2022/06/17 05:39:41;;;;;;;3.13;1.50;;;;;;;16.53;54.95;100487.47;4940053;29;20047;-68
2022/06/17 05:42:12;;;;;;;3.30;1.23;;;;;;;16.53;55.52;100495.31;4931884;29;21044;-68
2022/06/17 05:44:43;;;;;;;1.65;1.10;;;;;;;16.53;55.47;100481.38;4931991;29;20134;-68
2022/06/17 05:47:11;;;;;;;4.28;1.45;;;;;;;16.51;55.59;100478.75;4937066;29;20072;-67
2022/06/17 05:49:40;;;;;;;3.20;1.50;;;;;;;16.51;55.21;100472.66;4929287;29;20043;-66
2022/06/17 05:52:11;;;;;;;2.80;1.35;;;;;;;16.44;55.62;100466.56;4931502;29;20593;-68
2022/06/17 05:54:39;;;;;;;2.42;1.20;;;;;;;16.48;55.58;100468.31;4930699;29;20055;-69
2022/06/17 05:57:08;;;;;;;4.55;1.27;;;;;;;16.44;56.26;100458.72;4930207;29;20055;-67
2022/06/17 05:59:37;;;;;;;2.03;1.23;;;;;;;16.43;56.07;100457.00;4933279;29;20056;-67
2022/06/17 06:02:08;;;;;;;4.60;1.50;;;;;;;16.44;56.14;100444.81;4930651;29;20054;-67
2022/06/17 06:04:37;;;;;;;1.50;1.00;;;;;;;16.41;55.73;100448.28;4925772;29;20048;-67
2022/06/17 06:07:06;;;;;;;2.22;1.40;;;;;;;16.39;54.93;100450.03;4933577;29;20051;-66
2022/06/17 06:09:34;;;;;;;4.32;1.50;;;;;;;16.39;56.96;100444.81;4929786;29;20178;-66
2022/06/17 06:12:02;;;;;;;2.50;1.38;;;;;;;16.36;56.64;100442.22;4931936;29;20054;-66
2022/06/17 06:14:31;;;;;;;5.50;1.48;;;;;;;16.34;56.29;100441.34;4935865;29;20055;-66
2022/06/17 06:16:59;;;;;;;2.78;1.20;;;;;;;16.32;56.25;100435.22;4935464;29;20048;-66
2022/06/17 06:19:32;;;;;;;3.50;1.33;;;;;;;16.28;57.61;100438.69;4931392;29;20498;-67
2022/06/17 06:22:00;;;;;;;;;;;;;;;16.25;56.95;100444.78;4933616;29;20428;-66
2022/06/17 06:24:28;;;;;;;2.20;1.27;;;;;;;16.25;56.44;100438.72;4925184;29;20419;-66
2022/06/17 06:26:57;;;;;;;4.45;1.40;;;;;;;16.24;57.90;100443.06;4928216;29;20760;-67
2022/06/17 06:29:25;;;;;;;1.73;0.90;;;;;;;16.24;56.64;100444.78;4936932;29;20047;-68
2022/06/17 06:31:54;;;;;;;3.78;1.23;;;;;;;16.14;55.42;100443.91;4929437;29;20039;-67
2022/06/17 06:34:22;;;;;;;5.68;1.30;;;;;;;16.07;56.08;100450.84;4932790;29;20098;-67
2022/06/17 06:36:53;;;;;;;1.95;1.08;;;;;;;16.06;57.75;100449.13;4931528;29;20111;-67
2022/06/17 06:39:21;;;;;;;1.85;1.27;;;;;;;16.03;57.41;100446.47;4926450;28;20105;-66
2022/06/17 06:41:49;;;;;;;2.95;1.20;;;;;;;16.00;56.95;100443.88;4923859;29;20048;-67
2022/06/17 06:44:18;;;;;;;2.47;1.35;;;;;;;16.00;57.26;100449.09;4934791;29;20544;-66
2022/06/17 06:46:46;;;;;;;4.47;1.35;;;;;;;15.96;57.26;100447.34;4933791;28;20529;-67
2022/06/17 06:49:15;;;;;;;2.83;1.30;;;;;;;15.93;56.63;100454.31;4928985;29;20099;-67
2022/06/17 06:51:43;;;;;;;5.07;1.58;;;;;;;15.93;57.73;100452.56;4934104;29;20048;-67
2022/06/17 06:54:14;;;;;;;3.15;1.15;;;;;;;15.95;57.13;100448.22;4934920;29;20130;-67
2022/06/17 06:56:42;;;;;;;4.47;1.60;;;;;;;15.94;56.46;100446.47;4929860;29;20044;-68
2022/06/17 06:59:12;;;;;;;3.83;1.42;;;;;;;15.96;59.46;100456.91;4936328;28;20063;-66
2022/06/17 07:01:41;;;;;;;1.58;1.00;;;;;;;15.94;59.54;100449.06;4930712;29;20044;-67
2022/06/17 07:04:09;;;;;;;2.38;1.48;;;;;;;15.93;57.79;100444.72;4938396;29;20137;-66
2022/06/17 07:06:38;;;;;;;2.58;1.33;;;;;;;15.91;56.81;100446.47;4928733;29;20119;-67
2022/06/17 07:09:06;;;;;;;2.78;1.15;;;;;;;15.89;56.37;100445.59;4930020;29;20051;-66
2022/06/17 07:11:36;;;;;;;1.50;1.15;;;;;;;15.85;56.33;100428.19;4924271;29;20048;-67
2022/06/17 07:14:05;;;;;;;2.60;1.27;;;;;;;15.90;57.11;100431.69;4929437;29;20047;-67
2022/06/17 07:16:33;;;;;;;2.80;1.10;;;;;;;15.91;57.76;100430.81;4929426;29;20446;-67
2022/06/17 07:19:07;;;;;;;4.35;1.35;;;;;;;15.88;57.10;100420.38;4930827;29;20515;-67
2022/06/17 07:21:36;;;;;;;4.78;1.25;;;;;;;15.90;56.85;100421.25;4927410;29;20596;-66
2022/06/17 07:24:04;;;;;;;3.85;1.38;;;;;;;15.91;57.97;100422.97;4932344;29;20079;-67
2022/06/17 07:26:33;;;;;;;3.42;1.15;;;;;;;15.89;58.47;100422.09;4931153;29;20447;-67
2022/06/17 07:29:03;;;;;;;2.80;1.35;;;;;;;15.88;58.99;100415.16;4935370;29;20051;-66
2022/06/17 07:31:32;;;;;;;2.95;1.20;;;;;;;15.85;57.74;100402.09;4934595;29;20058;-66
2022/06/17 07:34:00;;;;;;;5.25;1.38;;;;;;;15.84;57.96;100410.78;4933526;29;20094;-66
2022/06/17 07:42:03;;;;;;;3.28;1.25;;;;;;;15.76;58.67;100389.91;4934903;29;20055;-66
2022/06/17 07:44:35;;;;;;;3.25;1.25;;;;;;;15.72;58.28;100389.91;4935500;29;20052;-67
2022/06/17 07:47:04;;;;;;;6.97;1.45;;;;;;;15.66;63.38;100396.78;4943393;28;20052;-68
2022/06/17 07:49:33;;;;;;;2.83;1.13;;;;;;;15.61;59.73;100390.69;4931190;29;20043;-67
2022/06/17 07:52:01;;;;;;;1.60;0.95;;;;;;;15.60;57.66;100385.47;4928321;29;20529;-67
2022/06/17 07:54:30;;;;;;;3.30;1.25;;;;;;;15.59;58.48;100381.13;4931670;29;20099;-66
2022/06/17 07:56:58;;;;;;;4.55;1.05;;;;;;;15.59;59.48;100368.97;4934871;29;20044;-67
2022/06/17 07:59:27;;;;;;;3.58;1.17;;;;;;;15.58;60.02;100366.38;4940108;29;20058;-66
2022/06/17 08:01:57;;;;;;;2.20;1.38;;;;;;;15.54;59.14;100364.59;4930401;29;20052;-67
2022/06/17 08:04:25;;;;;;;5.43;1.15;;;;;;;15.54;61.04;100362.88;4938042;29;20113;-67
2022/06/17 08:06:54;;;;;;;3.08;1.33;;;;;;;15.48;62.20;100368.06;4935917;29;20062;-67
2022/06/17 08:09:23;;;;;;;1.67;1.00;;;;;;;15.45;61.15;100360.22;4935658;29;20051;-67
2022/06/17 08:11:52;;;;;;;2.78;1.55;;;;;;;15.40;59.73;100361.97;4931384;29;20108;-66
2022/06/17 08:14:20;;;;;;;4.47;1.55;;;;;;;15.37;60.80;100362.81;4934376;29;20130;-67
2022/06/17 08:16:49;;;;;;;3.42;1.15;;;;;;;15.35;62.88;100359.34;4935537;29;20063;-67
2022/06/17 08:19:19;;;;;;;1.42;1.10;;;;;;;15.33;63.75;100360.19;4929184;29;20497;-67
2022/06/17 08:21:48;;;;;;;3.45;1.17;;;;;;;15.28;62.71;100355.84;4924647;29;20055;-67
2022/06/17 08:24:16;;;;;;;2.45;0.88;;;;;;;15.26;62.26;100349.75;4929825;29;20048;-67
2022/06/17 08:26:45;;;;;;;4.53;1.30;;;;;;;15.22;65.29;100358.41;4931013;29;20556;-67
2022/06/17 08:29:13;;;;;;;3.50;1.40;;;;;;;15.15;64.94;100355.78;4928358;29;20665;-66
2022/06/17 08:31:42;;;;;;;3.15;1.42;;;;;;;15.12;63.28;100355.75;4938201;29;20047;-67
2022/06/17 08:34:10;;;;;;;2.90;1.35;;;;;;;15.05;63.27;100349.66;4927100;29;20051;-67
2022/06/17 08:36:41;;;;;;;2.83;0.95;;;;;;;14.96;62.85;100342.66;4934864;29;20566;-67
2022/06/17 08:39:14;;;;;;;1.45;0.90;;;;;;;14.97;64.89;100340.91;4933434;29;20052;-67
2022/06/17 08:41:52;;;;;;;2.63;1.05;;;;;;;14.89;67.09;100353.91;4932733;29;20501;-67
2022/06/17 08:44:42;;;;;;;2.67;1.48;;;;;;;14.84;65.43;100350.41;4937099;29;20441;-67
2022/06/17 08:47:50;;;;;;;3.13;1.13;;;;;;;14.82;66.92;100342.59;4936486;28;20056;-67
2022/06/17 08:50:41;;;;;;;4.40;1.13;;;;;;;14.85;66.68;100340.00;4870391;29;20530;-67
2022/06/17 08:53:53;;;;;;;3.08;1.25;;;;;;;14.86;65.53;100326.09;4928441;29;20052;-67
2022/06/17 08:56:30;;;;;;;2.17;0.93;;;;;;;14.92;63.98;100329.63;4928840;29;20522;-67
2022/06/17 08:59:15;;;;;;;1.70;1.13;;;;;;;14.92;63.75;100314.84;4933816;29;20048;-67
2022/06/17 09:01:52;;;;;;;2.88;1.30;;;;;;;14.94;63.55;100320.09;4932659;29;20044;-67
2022/06/17 09:04:37;;;;;;;2.40;1.25;;;;;;;14.95;63.29;100306.19;4931948;29;20098;-67
2022/06/17 09:07:20;;;;;;;2.42;1.00;;;;;;;14.95;64.43;100301.81;4930447;29;20095;-67
2022/06/17 09:10:09;;;;;;;7.10;1.05;;;;;;;14.97;66.69;100307.06;4929560;29;20130;-67
2022/06/17 09:12:51;;;;;;;3.03;0.93;;;;;;;14.96;66.23;100305.31;4928162;29;20047;-66
2022/06/17 09:15:28;;;;;;;2.63;0.93;;;;;;;14.95;65.24;100296.63;4930791;29;20087;-67
2022/06/17 09:18:03;;;;;;;2.55;1.02;;;;;;;14.96;64.94;100297.50;4941498;29;20518;-66
2022/06/17 09:20:36;;;;;;;3.30;1.30;;;;;;;14.96;65.44;100300.13;4941102;29;20047;-67
2022/06/17 09:23:07;;;;;;;1.30;0.90;;;;;;;14.96;64.68;100289.69;4930848;29;20545;-67
2022/06/17 09:25:42;;;;;;;2.00;1.10;;;;;;;14.95;65.45;100291.41;4937507;29;20079;-67
2022/06/17 09:28:16;;;;;;;3.10;1.25;;;;;;;14.91;65.41;100299.19;4933845;29;20664;-66
2022/06/17 09:30:51;;;;;;;3.17;0.98;;;;;;;14.78;66.65;100308.72;4930605;29;20055;-66
2022/06/17 09:33:25;;;;;;;2.28;1.00;;;;;;;14.69;71.10;100314.72;4940540;29;20056;-66
2022/06/17 09:36:01;;;;;;;3.55;1.15;;;;;;;14.58;70.66;100322.47;4932786;29;20512;-66
2022/06/17 09:38:37;;;;;;;3.33;1.00;;;;;;;14.53;68.22;100318.94;4928504;29;20490;-66
2022/06/17 09:41:13;;;;;;;3.60;0.90;;;;;;;14.54;68.99;100325.00;4930846;29;20055;-66
2022/06/17 09:43:47;;;;;;;1.65;1.13;;;;;;;14.55;69.21;100316.41;4924423;29;20069;-67
2022/06/17 09:46:21;;;;;;;2.35;1.08;;;;;;;14.60;69.74;100315.53;4925808;28;20418;-67
2022/06/17 09:48:56;;;;;;;2.70;1.17;;;;;;;14.64;70.34;100311.25;4934533;29;20107;-66
2022/06/17 09:51:32;;;;;;;3.35;1.23;;;;;;;14.67;69.05;100319.06;4933784;29;20449;-66
2022/06/17 09:54:06;;;;;;;2.20;1.10;;;;;;;14.66;69.24;100319.94;4932291;29;20048;-67
2022/06/17 09:56:42;;;;;;;5.32;1.48;;;;;;;14.67;69.05;100316.47;4922877;29;20052;-66
2022/06/17 09:59:17;;;;;;;1.77;1.30;;;;;;;14.69;68.11;100309.53;4930142;29;20052;-68
2022/06/17 10:01:47;;;;;;;2.95;1.25;;;;;;;14.70;69.09;100311.25;4933091;29;20047;-67
2022/06/17 10:04:17;;;;;;;3.90;1.40;;;;;;;14.71;67.89;100304.34;4932978;29;20062;-65
2022/06/17 10:06:59;;;;;;;3.17;1.45;;;;;;;14.72;68.02;100313.88;4931790;29;20047;-66
2022/06/17 10:09:48;;;;;;;9.75;2.28;;;;;;;14.70;67.79;100313.00;4931400;29;20056;-66
2022/06/17 10:12:31;;;;;;;4.10;1.27;;;;;;;14.74;67.37;100317.38;4923788;29;20102;-67
2022/06/17 10:15:13;;;;;;;3.40;1.02;;;;;;;14.74;67.37;100327.78;4929797;29;20055;-66
2022/06/17 10:20:51;;;;;;;2.33;1.33;;;;;;;14.73;69.27;100310.41;4927565;29;20057;-66
2022/06/17 10:23:34;;;;;;;6.07;1.35;;;;;;;14.71;68.17;100301.72;4927486;29;20049;-67
2022/06/17 10:26:13;;;;;;;2.45;1.30;;;;;;;14.63;67.70;100309.47;4932489;29;20328;-66
2022/06/17 10:29:14;;;;;;;3.60;1.30;;;;;;;14.62;69.40;100313.81;4928015;29;20051;-67
2022/06/17 10:31:46;;;;;;;4.50;1.73;;;;;;;14.63;67.81;100320.75;4929276;29;20058;-66
2022/06/17 10:34:19;;;;;;;6.90;1.50;;;;;;;14.64;67.63;100313.84;4928344;29;20064;-66
2022/06/17 10:36:52;;;;;;;2.17;1.25;;;;;;;14.64;68.39;100325.13;4933561;29;20146;-66
2022/06/17 10:39:23;;;;;;;2.80;1.08;;;;;;;14.65;68.09;100318.19;4935988;29;20043;-66
2022/06/17 10:41:53;;;;;;;2.60;1.33;;;;;;;14.65;69.29;100312.97;4923625;29;20068;-66
2022/06/17 10:44:26;;;;;;;5.38;1.50;;;;;;;14.60;69.51;100310.34;4932369;29;20051;-66
2022/06/17 10:47:00;;;;;;;2.33;1.45;;;;;;;14.58;69.53;100295.56;4939698;28;20115;-67
2022/06/17 10:49:36;;;;;;;2.80;1.45;;;;;;;14.57;70.10;100299.06;4933081;29;20058;-67
2022/06/17 10:52:10;;;;;;;2.70;1.25;;;;;;;14.56;70.37;100292.09;4927088;29;20047;-67
2022/06/17 10:54:40;;;;;;;1.98;1.35;;;;;;;14.55;70.46;100298.16;4929195;29;20048;-66
2022/06/17 10:57:10;;;;;;;2.33;1.30;;;;;;;14.53;69.68;100298.13;4928642;29;20561;-67
2022/06/17 10:59:42;;;;;;;2.25;1.27;;;;;;;14.54;71.02;100304.19;4934515;29;20085;-66
2022/06/17 11:02:30;;;;;;;5.33;1.77;;;;;;;14.53;70.00;100297.25;4933327;29;20115;-66
2022/06/17 11:05:00;;;;;;;1.58;1.10;;;;;;;14.51;69.86;100293.75;4933938;29;20305;-66
2022/06/17 11:07:33;;;;;;;2.83;1.20;;;;;;;14.51;69.54;100293.75;4932195;29;20048;-67
2022/06/17 11:10:05;;;;;;;1.73;1.30;;;;;;;14.49;69.75;100298.94;4933193;29;20721;-66
2022/06/17 11:12:37;;;;;;;2.42;1.23;;;;;;;14.47;69.59;100292.88;4936382;29;20063;-67
2022/06/17 11:15:27;;;;;;;2.20;1.27;;;;;;;14.44;69.65;100290.25;4937003;29;20055;-68
2022/06/17 11:17:59;;;;;;;2.08;1.38;;;;;;;14.41;69.64;100288.50;4931521;29;20135;-67
2022/06/17 11:20:29;;;;;;;;;;;;;;;14.41;70.43;100275.50;4935919;29;20067;-67
2022/06/17 11:23:00;;;;;;;5.32;1.40;;;;;;;14.40;70.40;100265.06;4930660;29;20038;-67
2022/06/17 11:25:35;;;;;;;4.07;1.15;;;;;;;14.38;70.05;100267.63;4946218;29;20541;-67
2022/06/17 11:28:13;;;;;;;2.70;1.30;;;;;;;14.38;70.02;100257.22;4936901;29;20051;-67
2022/06/17 11:30:53;;;;;;;2.30;1.30;;;;;;;14.35;70.82;100261.56;4924350;29;20048;-67
2022/06/17 11:33:25;;;;;;;4.00;1.67;;;;;;;14.30;73.28;100274.56;4928802;29;20159;-67
2022/06/17 11:36:02;;;;;;;2.38;1.00;;;;;;;14.15;78.34;100275.28;4936289;29;20052;-66
2022/06/17 11:38:33;;;;;;;4.50;1.30;;;;;;;13.96;78.87;100271.69;4937416;29;20074;-66
2022/06/17 11:41:02;;;;;;;3.05;1.48;;;;;;;13.85;78.80;100268.13;4946348;29;20062;-66
2022/06/17 11:43:35;;;;;;;4.13;1.33;;;;;;;13.73;79.75;100268.91;4946095;29;20047;-65
2022/06/17 11:46:13;;;;;;;2.85;1.55;;;;;;;13.61;80.20;100261.88;4937227;28;20063;-66
2022/06/17 11:48:44;;;;;;;2.65;1.38;;;;;;;13.51;79.13;100244.44;4932279;29;20051;-66
2022/06/17 11:51:16;;;;;;;2.80;1.20;;;;;;;13.62;80.42;100266.19;4935937;29;20056;-66
2022/06/17 11:53:49;;;;;;;3.83;1.25;;;;;;;13.65;79.45;100267.94;4929826;29;20070;-66
2022/06/17 11:56:33;;;;;;;7.22;1.30;;;;;;;13.56;78.92;100268.75;4930036;29;20098;-65
2022/06/17 11:59:07;;;;;;;1.95;1.45;;;;;;;13.51;79.69;100275.63;4930015;29;20504;-66
2022/06/17 12:01:37;;;;;;;2.55;1.40;;;;;;;13.50;78.50;100273.03;4942983;28;20102;-66
2022/06/17 12:04:06;;;;;;;4.80;1.30;;;;;;;13.50;78.71;100273.03;4934109;29;20083;-67